Time;durP1;ratioP1;P1;durP2;ratioP2;P2;SDS_P1;SDS_P2;PMS_P1;PMS_P2;Temp;Humidity;BMP_temperature;BMP_pressure;BME280_temperature;BME280_humidity;BME280_pressure;Samples;Min_cycle;Max_cycle;Signal;HPM_P1;HPM_P2
2022/09/17 00:00:18;;;;;;;1.80;0.93;;;12.50;99.90;;;;;;5050214;28;20408;-65
2022/09/17 00:02:45;;;;;;;1.10;1.00;;;12.40;99.90;;;;;;5053438;28;20722;-67
2022/09/17 00:05:11;;;;;;;2.17;1.13;;;12.50;99.90;;;;;;5054567;28;20207;-67
2022/09/17 00:07:37;;;;;;;1.97;1.20;;;12.40;99.90;;;;;;5047153;28;20438;-67
2022/09/17 00:10:03;;;;;;;1.80;1.20;;;12.40;99.90;;;;;;5045173;28;20196;-67
2022/09/17 00:12:30;;;;;;;1.70;1.17;;;12.50;99.90;;;;;;5043290;28;20175;-68
2022/09/17 00:14:56;;;;;;;1.20;0.90;;;12.50;99.90;;;;;;5029601;28;20815;-68
2022/09/17 00:17:22;;;;;;;1.20;1.10;;;12.50;99.90;;;;;;5054562;28;20455;-68
2022/09/17 00:19:48;;;;;;;1.30;1.17;;;12.50;99.90;;;;;;5054543;28;20281;-68
2022/09/17 00:22:14;;;;;;;1.10;1.00;;;12.60;99.90;;;;;;5054096;28;20174;-67
2022/09/17 00:24:40;;;;;;;1.33;0.97;;;12.50;99.90;;;;;;5055105;28;20409;-67
2022/09/17 00:27:06;;;;;;;1.27;1.13;;;12.30;99.90;;;;;;5053334;28;20436;-68
2022/09/17 00:29:31;;;;;;;1.37;1.00;;;12.50;99.90;;;;;;5055190;28;20695;-68
2022/09/17 00:31:57;;;;;;;2.37;1.30;;;12.50;99.90;;;;;;5054386;28;20192;-66
2022/09/17 00:34:22;;;;;;;1.53;0.90;;;12.40;99.90;;;;;;5052411;28;20177;-66
2022/09/17 00:36:48;;;;;;;2.73;1.20;;;12.60;99.90;;;;;;5045345;28;20201;-69
2022/09/17 00:39:15;;;;;;;3.60;1.40;;;12.50;99.90;;;;;;5050602;28;20219;-67
2022/09/17 00:41:41;;;;;;;2.00;1.40;;;12.20;99.90;;;;;;5027686;28;20174;-67
2022/09/17 00:44:38;;;;;;;3.13;1.00;;;12.20;99.90;;;;;;5039660;28;20815;-67
2022/09/17 00:47:03;;;;;;;2.40;1.13;;;12.10;99.90;;;;;;5038112;28;20445;-68
2022/09/17 00:49:31;;;;;;;2.50;0.90;;;12.20;99.90;;;;;;5051168;28;20496;-67
2022/09/17 00:52:10;;;;;;;1.40;1.30;;;12.20;99.90;;;;;;5053428;28;20437;-67
2022/09/17 00:54:39;;;;;;;2.10;1.40;;;12.20;99.90;;;;;;5053726;28;20452;-67
2022/09/17 00:57:05;;;;;;;2.40;1.00;;;12.30;99.90;;;;;;5052678;28;20459;-68
2022/09/17 00:59:31;;;;;;;1.23;1.00;;;12.30;99.90;;;;;;5054091;28;20425;-66
2022/09/17 01:01:57;;;;;;;1.40;1.20;;;12.30;99.90;;;;;;5053322;28;20262;-66
2022/09/17 01:04:25;;;;;;;1.70;1.40;;;12.20;99.90;;;;;;5035939;28;20441;-66
2022/09/17 01:06:58;;;;;;;1.40;1.30;;;12.00;99.90;;;;;;5043197;28;20182;-67
2022/09/17 01:09:47;;;;;;;1.13;1.03;;;12.00;99.90;;;;;;5036231;28;20479;-66
2022/09/17 01:12:28;;;;;;;1.43;1.00;;;11.90;99.90;;;;;;5043623;28;20425;-67
2022/09/17 01:15:08;;;;;;;1.53;1.00;;;12.00;99.90;;;;;;5053097;28;20428;-67
2022/09/17 01:17:45;;;;;;;2.00;1.10;;;11.80;99.90;;;;;;5041628;28;20483;-66
2022/09/17 01:20:29;;;;;;;3.80;1.30;;;11.90;99.90;;;;;;5054168;28;20397;-66
2022/09/17 01:23:22;;;;;;;5.33;1.33;;;11.80;99.90;;;;;;5051827;28;22693;-68
2022/09/17 01:26:16;;;;;;;1.73;1.13;;;11.70;99.90;;;;;;5053430;28;20426;-66
2022/09/17 01:28:45;;;;;;;1.50;1.37;;;11.80;99.90;;;;;;5053165;28;20427;-67
2022/09/17 01:31:44;;;;;;;2.80;1.40;;;11.80;99.90;;;;;;5046910;28;20515;-67
2022/09/17 01:34:28;;;;;;;2.33;1.40;;;11.90;99.90;;;;;;5048371;28;20988;-66
2022/09/17 01:36:54;;;;;;;3.23;1.63;;;11.70;99.90;;;;;;5051145;28;20845;-67
2022/09/17 01:39:47;;;;;;;2.50;1.60;;;11.80;99.90;;;;;;5051990;28;20532;-66
2022/09/17 01:42:24;;;;;;;4.40;1.77;;;11.80;99.90;;;;;;5053096;28;20209;-67
2022/09/17 01:45:03;;;;;;;3.50;1.80;;;11.80;99.90;;;;;;5052695;28;20440;-68
2022/09/17 01:47:45;;;;;;;1.37;1.27;;;11.70;99.90;;;;;;5052884;28;20428;-68
2022/09/17 01:50:16;;;;;;;2.60;1.60;;;11.70;99.90;;;;;;5051971;28;20438;-67
2022/09/17 01:52:44;;;;;;;2.93;1.57;;;11.60;99.90;;;;;;5052510;28;20433;-67
2022/09/17 01:55:14;;;;;;;1.60;1.20;;;11.70;99.90;;;;;;5052398;28;20436;-66
2022/09/17 01:57:51;;;;;;;3.57;1.30;;;11.80;99.90;;;;;;5052262;28;20460;-67
2022/09/17 02:00:18;;;;;;;2.33;1.70;;;11.70;99.90;;;;;;5051163;28;20440;-67
2022/09/17 02:02:52;;;;;;;2.03;1.43;;;11.70;99.90;;;;;;5045447;28;20471;-67
2022/09/17 02:05:22;;;;;;;4.47;1.90;;;11.70;99.90;;;;;;5033348;28;20402;-67
2022/09/17 02:08:08;;;;;;;1.73;1.30;;;11.70;99.90;;;;;;5035122;28;20433;-67
2022/09/17 02:10:48;;;;;;;3.10;1.70;;;11.90;99.90;;;;;;5029327;28;20437;-66
2022/09/17 02:13:22;;;;;;;3.63;1.60;;;11.80;99.90;;;;;;5051592;28;20983;-67
2022/09/17 02:15:58;;;;;;;2.60;1.60;;;11.90;99.90;;;;;;5048565;28;20414;-67
2022/09/17 02:18:46;;;;;;;5.10;1.53;;;12.00;99.90;;;;;;5050208;28;20464;-68
2022/09/17 02:21:27;;;;;;;1.70;1.30;;;12.00;99.90;;;;;;5039460;28;20922;-68
2022/09/17 02:24:04;;;;;;;3.00;1.67;;;11.90;99.90;;;;;;5038326;28;20751;-67
2022/09/17 02:26:33;;;;;;;1.83;1.60;;;11.80;99.90;;;;;;5034472;28;20416;-68
2022/09/17 02:29:10;;;;;;;2.93;1.83;;;11.80;99.90;;;;;;5051855;28;20409;-68
2022/09/17 02:31:36;;;;;;;2.80;1.63;;;11.90;99.90;;;;;;5034982;28;20452;-68
2022/09/17 02:34:04;;;;;;;2.90;1.60;;;11.90;99.90;;;;;;5051035;28;20928;-68
2022/09/17 02:36:31;;;;;;;2.30;1.53;;;11.80;99.90;;;;;;5036640;28;20261;-67
2022/09/17 02:39:00;;;;;;;3.13;1.83;;;12.00;99.90;;;;;;5021513;28;20455;-67
2022/09/17 02:41:51;;;;;;;2.33;1.40;;;11.90;99.90;;;;;;5052334;28;20425;-67
2022/09/17 02:44:32;;;;;;;4.57;1.87;;;12.00;99.90;;;;;;5034217;28;20426;-68
2022/09/17 02:47:29;;;;;;;1.83;1.63;;;12.00;99.90;;;;;;5051637;28;20430;-68
2022/09/17 02:50:17;;;;;;;4.97;1.50;;;12.00;99.90;;;;;;5087629;23;20551;-66
2022/09/17 02:53:03;;;;;;;1.67;1.40;;;12.20;99.90;;;;;;5046127;28;20762;-67
2022/09/17 02:55:30;;;;;;;4.33;1.70;;;12.20;99.90;;;;;;5050606;28;20512;-67
2022/09/17 02:58:13;;;;;;;3.73;1.40;;;12.10;99.90;;;;;;5053625;28;20449;-66
2022/09/17 03:00:39;;;;;;;2.70;1.60;;;12.10;99.90;;;;;;5032672;28;20426;-67
2022/09/17 03:03:10;;;;;;;3.50;1.57;;;11.90;99.90;;;;;;5031233;28;20434;-67
2022/09/17 03:05:37;;;;;;;5.00;2.07;;;11.80;99.90;;;;;;5033769;28;20422;-68
2022/09/17 03:08:08;;;;;;;2.03;1.60;;;11.80;99.90;;;;;;5033024;28;20794;-68
2022/09/17 03:10:33;;;;;;;2.97;1.77;;;11.80;99.90;;;;;;5032773;28;20458;-68
2022/09/17 03:12:59;;;;;;;2.53;1.70;;;11.70;99.90;;;;;;5029501;28;20429;-68
2022/09/17 03:15:25;;;;;;;5.60;1.87;;;11.50;99.90;;;;;;5033375;28;20236;-68
2022/09/17 03:17:51;;;;;;;3.73;1.83;;;11.60;99.90;;;;;;5033615;28;20187;-67
2022/09/17 03:20:17;;;;;;;2.70;1.53;;;11.60;99.90;;;;;;5034066;28;20430;-67
2022/09/17 03:22:42;;;;;;;2.60;1.30;;;11.50;99.90;;;;;;5033076;28;20654;-68
2022/09/17 03:25:08;;;;;;;1.83;1.53;;;11.60;99.90;;;;;;5031266;28;20433;-68
2022/09/17 03:27:34;;;;;;;1.70;1.30;;;11.50;99.90;;;;;;5031749;28;20409;-68
2022/09/17 03:30:00;;;;;;;3.70;1.83;;;11.50;99.90;;;;;;5032683;28;20486;-67
2022/09/17 03:32:25;;;;;;;4.27;2.07;;;11.40;99.90;;;;;;5031378;28;20175;-68
2022/09/17 03:34:52;;;;;;;3.40;2.10;;;11.50;99.90;;;;;;5032038;28;20185;-67
2022/09/17 03:37:18;;;;;;;1.97;1.53;;;11.50;99.90;;;;;;5035954;28;20198;-68
2022/09/17 03:39:43;;;;;;;4.70;1.97;;;11.40;99.90;;;;;;5035559;28;20990;-67
2022/09/17 03:42:09;;;;;;;1.90;1.30;;;11.50;99.90;;;;;;5035669;28;20679;-67
2022/09/17 03:44:34;;;;;;;4.70;1.70;;;11.80;99.90;;;;;;5036114;28;20669;-68
2022/09/17 03:47:00;;;;;;;2.30;1.23;;;11.90;99.90;;;;;;5036086;28;20178;-67
2022/09/17 03:49:25;;;;;;;2.57;1.57;;;11.90;99.90;;;;;;5036905;28;20231;-67
2022/09/17 03:51:51;;;;;;;5.73;1.57;;;11.90;99.90;;;;;;5036195;28;20182;-67
2022/09/17 03:54:17;;;;;;;3.67;1.70;;;11.90;99.90;;;;;;5035696;28;20178;-67
2022/09/17 03:56:42;;;;;;;3.60;1.87;;;11.80;99.90;;;;;;5036956;28;20202;-68
2022/09/17 03:59:08;;;;;;;2.23;1.40;;;11.80;99.90;;;;;;5037582;28;20219;-67
2022/09/17 04:01:35;;;;;;;5.27;2.10;;;11.50;99.90;;;;;;5038017;28;20167;-67
2022/09/17 04:04:01;;;;;;;3.00;1.50;;;11.40;99.90;;;;;;5037153;28;20162;-67
2022/09/17 04:06:27;;;;;;;3.17;1.67;;;11.40;99.90;;;;;;5037038;28;20458;-67
2022/09/17 04:08:52;;;;;;;2.87;1.63;;;11.30;99.90;;;;;;5036118;28;20876;-67
2022/09/17 04:11:18;;;;;;;5.17;1.57;;;11.40;99.90;;;;;;5036324;28;20173;-68
2022/09/17 04:13:43;;;;;;;4.03;1.63;;;11.50;99.90;;;;;;5036853;28;20241;-67
2022/09/17 04:16:10;;;;;;;3.07;2.00;;;11.60;99.90;;;;;;5036030;28;20179;-68
2022/09/17 04:18:35;;;;;;;3.00;1.90;;;11.60;99.90;;;;;;5036991;28;20207;-68
2022/09/17 04:21:01;;;;;;;4.10;1.60;;;11.40;99.90;;;;;;5037190;28;20406;-68
2022/09/17 04:23:27;;;;;;;2.87;1.93;;;11.20;99.90;;;;;;5036705;28;20178;-68
2022/09/17 04:25:52;;;;;;;4.60;1.73;;;11.10;99.90;;;;;;5036837;28;20171;-68
2022/09/17 04:28:18;;;;;;;6.27;1.47;;;11.20;99.90;;;;;;5035863;28;20185;-67
2022/09/17 04:30:43;;;;;;;5.37;1.67;;;11.10;99.90;;;;;;5036460;28;20265;-67
2022/09/17 04:33:09;;;;;;;2.43;1.43;;;11.00;99.90;;;;;;5036809;28;20182;-67
2022/09/17 04:35:35;;;;;;;3.70;1.73;;;11.20;99.90;;;;;;5036306;28;20179;-68
2022/09/17 04:38:00;;;;;;;2.83;2.00;;;11.00;99.90;;;;;;5034724;28;20205;-67
2022/09/17 04:40:26;;;;;;;2.73;1.43;;;11.10;99.90;;;;;;5036186;28;20167;-67
2022/09/17 04:42:54;;;;;;;3.93;1.57;;;11.10;99.90;;;;;;5036918;28;20507;-68
2022/09/17 04:45:19;;;;;;;2.50;1.57;;;11.10;99.90;;;;;;5035959;28;20406;-67
2022/09/17 04:47:45;;;;;;;4.33;1.90;;;11.10;99.90;;;;;;5036170;28;20417;-67
2022/09/17 04:50:10;;;;;;;3.00;1.80;;;11.10;99.90;;;;;;5036901;28;20203;-67
2022/09/17 04:52:36;;;;;;;2.60;1.87;;;11.10;99.90;;;;;;5036463;28;20262;-67
2022/09/17 04:55:02;;;;;;;3.97;1.77;;;11.10;99.90;;;;;;5034097;28;20179;-68
2022/09/17 04:57:27;;;;;;;4.83;1.60;;;11.20;99.90;;;;;;5034234;28;20563;-67
2022/09/17 04:59:53;;;;;;;5.47;2.23;;;11.40;99.90;;;;;;5033162;28;20206;-68
2022/09/17 05:02:18;;;;;;;3.70;1.90;;;11.20;99.90;;;;;;5031086;28;20167;-68
2022/09/17 05:04:44;;;;;;;2.70;1.70;;;11.20;99.90;;;;;;5034043;28;20171;-69
2022/09/17 05:07:09;;;;;;;5.60;1.70;;;11.20;99.90;;;;;;5026716;28;20225;-67
2022/09/17 05:09:35;;;;;;;5.83;2.20;;;11.20;99.90;;;;;;5025551;28;20217;-67
2022/09/17 05:12:01;;;;;;;5.10;1.77;;;11.30;99.90;;;;;;5027464;28;20175;-68
2022/09/17 05:14:26;;;;;;;3.90;2.00;;;11.20;99.90;;;;;;5026162;28;20580;-69
2022/09/17 05:16:52;;;;;;;4.30;2.20;;;11.20;99.90;;;;;;5026909;28;20191;-69
2022/09/17 05:19:17;;;;;;;7.50;1.97;;;11.20;99.90;;;;;;5027481;28;20183;-70
2022/09/17 05:21:43;;;;;;;4.50;1.80;;;11.20;99.90;;;;;;5027326;28;20177;-67
2022/09/17 05:24:08;;;;;;;4.13;1.80;;;11.30;99.90;;;;;;5026358;28;20171;-68
2022/09/17 05:26:34;;;;;;;3.97;1.90;;;11.40;99.90;;;;;;5027662;28;20665;-67
2022/09/17 05:29:00;;;;;;;4.23;1.67;;;11.30;99.90;;;;;;5027351;28;20196;-68
2022/09/17 05:31:25;;;;;;;4.10;1.70;;;11.30;99.90;;;;;;5027529;28;20225;-67
2022/09/17 05:33:51;;;;;;;2.50;1.57;;;11.30;99.90;;;;;;5027023;28;20267;-66
2022/09/17 05:36:16;;;;;;;3.27;1.83;;;11.40;99.90;;;;;;5026858;28;20243;-67
2022/09/17 05:38:42;;;;;;;3.20;2.13;;;11.30;99.90;;;;;;5026760;28;20265;-67
2022/09/17 05:41:08;;;;;;;5.47;2.50;;;11.40;99.90;;;;;;5027173;28;20187;-67
2022/09/17 05:43:34;;;;;;;5.50;2.00;;;11.20;99.90;;;;;;5026876;28;20176;-68
2022/09/17 05:46:03;;;;;;;9.30;2.33;;;11.30;99.90;;;;;;5026312;28;20673;-68
2022/09/17 05:48:29;;;;;;;3.73;2.00;;;11.40;99.90;;;;;;5027327;28;20464;-68
2022/09/17 05:50:55;;;;;;;3.90;2.00;;;11.30;99.90;;;;;;5026137;28;20426;-69
2022/09/17 05:53:21;;;;;;;2.97;1.77;;;11.20;99.90;;;;;;5025700;28;20301;-69
2022/09/17 05:55:46;;;;;;;3.80;2.50;;;11.20;99.90;;;;;;5027354;28;20179;-68
2022/09/17 05:58:15;;;;;;;4.50;2.10;;;11.20;99.90;;;;;;5026796;28;20450;-68
2022/09/17 06:00:41;;;;;;;4.10;2.00;;;11.20;99.90;;;;;;5025786;28;20591;-65
2022/09/17 06:03:11;;;;;;;4.73;2.30;;;11.20;99.90;;;;;;5026615;28;20407;-68
2022/09/17 06:05:36;;;;;;;5.03;1.77;;;11.20;99.90;;;;;;5042335;28;20522;-68
2022/09/17 06:08:02;;;;;;;5.03;1.93;;;11.20;99.90;;;;;;5026137;28;20506;-68
2022/09/17 06:10:28;;;;;;;3.30;2.13;;;11.30;99.90;;;;;;5027196;28;20224;-68
2022/09/17 06:12:58;;;;;;;3.40;2.10;;;11.20;99.90;;;;;;5042145;28;21049;-68
2022/09/17 06:15:25;;;;;;;4.60;2.30;;;11.40;99.90;;;;;;5027032;28;20258;-67
2022/09/17 06:17:51;;;;;;;4.40;2.63;;;11.50;99.90;;;;;;5033348;28;21052;-66
2022/09/17 06:20:17;;;;;;;4.20;1.80;;;11.60;99.90;;;;;;5033859;28;20459;-67
2022/09/17 06:22:43;;;;;;;5.00;2.73;;;11.60;99.90;;;;;;5035918;28;20406;-66
2022/09/17 06:25:08;;;;;;;4.77;2.17;;;11.80;99.90;;;;;;5035491;28;20775;-67
2022/09/17 06:27:34;;;;;;;5.80;2.03;;;11.70;99.90;;;;;;5035418;28;20180;-70
2022/09/17 06:30:00;;;;;;;3.90;2.77;;;11.60;99.90;;;;;;5029439;28;20432;-67
2022/09/17 06:32:27;;;;;;;6.60;2.43;;;11.50;99.90;;;;;;5026344;28;20230;-69
2022/09/17 06:34:54;;;;;;;6.37;2.47;;;11.70;99.90;;;;;;5026775;28;20543;-67
2022/09/17 06:37:26;;;;;;;6.23;2.00;;;11.60;99.90;;;;;;5026000;28;20449;-68
2022/09/17 06:39:51;;;;;;;5.10;2.30;;;11.50;99.90;;;;;;5025974;28;20426;-69
2022/09/17 06:42:17;;;;;;;4.80;2.73;;;11.60;99.90;;;;;;5025656;28;20429;-67
2022/09/17 06:44:42;;;;;;;5.90;2.03;;;11.70;99.90;;;;;;5026642;28;20171;-68
2022/09/17 06:47:08;;;;;;;6.80;2.27;;;11.80;99.90;;;;;;5033931;28;20221;-67
2022/09/17 06:49:33;;;;;;;5.77;2.47;;;11.90;99.90;;;;;;5034672;28;20297;-67
2022/09/17 06:51:59;;;;;;;2.83;2.53;;;11.90;99.90;;;;;;5034517;28;20213;-67
2022/09/17 06:54:25;;;;;;;8.03;2.37;;;12.10;99.90;;;;;;5035413;28;20175;-67
2022/09/17 06:56:50;;;;;;;4.20;1.90;;;12.10;99.90;;;;;;5035312;28;20191;-67
2022/09/17 06:59:16;;;;;;;3.27;2.33;;;12.20;99.90;;;;;;5035040;28;20665;-68
2022/09/17 07:01:42;;;;;;;3.20;2.30;;;12.20;99.90;;;;;;5034634;28;20167;-67
2022/09/17 07:04:08;;;;;;;4.33;2.60;;;12.20;99.90;;;;;;5034622;28;20406;-68
2022/09/17 07:06:33;;;;;;;4.20;2.00;;;12.30;99.90;;;;;;5034322;28;20477;-67
2022/09/17 07:08:59;;;;;;;6.90;2.63;;;12.20;99.90;;;;;;5032188;28;20191;-67
2022/09/17 07:11:24;;;;;;;4.03;2.40;;;12.10;99.90;;;;;;5034408;28;20298;-67
2022/09/17 07:13:50;;;;;;;6.00;2.63;;;11.80;99.90;;;;;;5034616;28;20163;-67
2022/09/17 07:16:16;;;;;;;3.90;2.30;;;11.80;99.90;;;;;;5034596;28;20171;-68
2022/09/17 07:18:41;;;;;;;5.23;2.50;;;11.80;99.90;;;;;;5034456;28;20206;-68
2022/09/17 07:21:08;;;;;;;3.33;2.17;;;11.80;99.90;;;;;;5034731;28;20175;-67
2022/09/17 07:23:35;;;;;;;3.83;2.50;;;11.70;99.90;;;;;;5033811;28;20164;-67
2022/09/17 07:26:07;;;;;;;3.47;2.70;;;11.60;99.90;;;;;;5034579;28;20401;-67
2022/09/17 07:28:33;;;;;;;4.20;2.53;;;11.50;99.90;;;;;;5034839;28;20430;-68
2022/09/17 07:31:04;;;;;;;5.07;2.93;;;11.30;99.90;;;;;;5034357;28;20475;-68
2022/09/17 07:33:29;;;;;;;4.47;2.37;;;11.30;99.90;;;;;;5034716;28;20174;-67
2022/09/17 07:35:57;;;;;;;3.33;2.37;;;11.40;99.90;;;;;;5034786;28;20918;-67
2022/09/17 07:38:23;;;;;;;3.73;2.70;;;11.30;99.90;;;;;;5034592;28;20214;-67
2022/09/17 07:41:06;;;;;;;3.43;2.60;;;11.30;99.90;;;;;;5035000;28;20452;-69
2022/09/17 07:43:34;;;;;;;3.60;2.40;;;11.40;99.90;;;;;;5034040;28;20402;-67
2022/09/17 07:46:01;;;;;;;2.73;2.23;;;11.40;99.90;;;;;;5035072;28;20438;-67
2022/09/17 07:48:27;;;;;;;4.17;2.93;;;11.30;99.90;;;;;;5034719;28;20445;-66
2022/09/17 07:50:54;;;;;;;6.30;2.40;;;11.50;99.90;;;;;;5034940;28;20488;-68
2022/09/17 07:53:21;;;;;;;5.20;2.60;;;11.30;99.90;;;;;;5034567;28;20838;-67
2022/09/17 07:55:54;;;;;;;4.27;3.10;;;11.40;99.90;;;;;;5034501;28;20410;-67
2022/09/17 07:58:21;;;;;;;4.10;2.50;;;11.50;99.90;;;;;;5034864;28;20457;-68
2022/09/17 08:00:47;;;;;;;3.47;2.47;;;11.60;99.90;;;;;;5034423;28;20399;-67
2022/09/17 08:03:13;;;;;;;2.73;2.40;;;11.60;99.90;;;;;;5035103;28;20437;-68
2022/09/17 08:05:39;;;;;;;4.90;2.70;;;11.40;99.90;;;;;;5033383;28;20862;-68
2022/09/17 08:08:04;;;;;;;5.90;2.87;;;11.40;99.90;;;;;;5017511;28;20239;-67
2022/09/17 08:10:30;;;;;;;4.13;2.90;;;11.70;99.90;;;;;;5032475;28;20179;-67
2022/09/17 08:12:57;;;;;;;4.30;2.87;;;11.80;99.90;;;;;;5018045;28;20176;-68
2022/09/17 08:15:23;;;;;;;4.10;2.20;;;12.00;99.90;;;;;;5014329;28;20261;-67
2022/09/17 08:17:50;;;;;;;4.70;2.60;;;11.90;99.90;;;;;;5013735;28;20976;-67
2022/09/17 08:20:16;;;;;;;4.20;2.60;;;11.90;99.90;;;;;;5013476;28;20438;-67
2022/09/17 08:22:42;;;;;;;3.07;1.97;;;12.10;99.90;;;;;;5014621;28;20406;-67
2022/09/17 08:25:09;;;;;;;6.20;2.73;;;11.90;99.90;;;;;;5033676;28;20409;-68
2022/09/17 08:27:37;;;;;;;4.53;2.87;;;11.90;99.90;;;;;;5037372;28;20171;-67
2022/09/17 08:30:04;;;;;;;3.50;2.47;;;11.90;99.90;;;;;;5036962;28;20426;-67
2022/09/17 08:32:29;;;;;;;4.83;2.77;;;12.10;99.90;;;;;;5036486;28;20418;-69
2022/09/17 08:34:55;;;;;;;4.63;3.03;;;12.20;99.90;;;;;;5027852;28;20777;-69
2022/09/17 08:37:20;;;;;;;7.63;3.70;;;12.40;99.90;;;;;;5021400;28;20197;-70
2022/09/17 08:39:46;;;;;;;4.33;2.73;;;12.50;99.90;;;;;;5034314;28;20198;-69
2022/09/17 08:42:31;;;;;;;6.07;2.33;;;12.70;99.90;;;;;;5035929;28;20173;-69
2022/09/17 08:44:58;;;;;;;4.73;2.50;;;12.40;99.90;;;;;;5035730;28;20231;-69
2022/09/17 08:47:27;;;;;;;4.97;3.23;;;12.50;99.90;;;;;;5035791;28;20489;-69
2022/09/17 08:49:56;;;;;;;4.37;2.80;;;12.70;99.90;;;;;;5072798;22;20995;-68
2022/09/17 08:52:35;;;;;;;6.90;3.40;;;12.60;99.90;;;;;;5034810;28;20393;-67
2022/09/17 08:55:38;;;;;;;5.37;2.93;;;12.80;99.90;;;;;;5034916;28;20935;-67
2022/09/17 08:58:22;;;;;;;5.63;2.90;;;13.10;99.90;;;;;;5023524;28;20980;-67
2022/09/17 09:00:57;;;;;;;7.90;3.13;;;13.00;99.90;;;;;;5034489;28;20522;-67
2022/09/17 09:03:36;;;;;;;8.87;3.80;;;13.10;99.90;;;;;;5034585;28;20475;-68
2022/09/17 09:06:01;;;;;;;8.03;3.00;;;13.40;99.90;;;;;;5034549;28;20386;-67
2022/09/17 09:08:42;;;;;;;4.90;2.83;;;13.60;99.90;;;;;;5033488;28;20477;-68
2022/09/17 09:11:20;;;;;;;9.83;3.10;;;13.60;99.90;;;;;;5015323;28;20180;-67
2022/09/17 09:13:57;;;;;;;6.00;3.20;;;13.60;99.90;;;;;;5014891;28;20421;-67
2022/09/17 09:16:31;;;;;;;6.70;3.30;;;13.90;99.90;;;;;;5014731;28;20530;-67
2022/09/17 09:19:09;;;;;;;7.30;3.30;;;13.80;99.90;;;;;;5014725;28;20427;-67
2022/09/17 09:22:02;;;;;;;10.17;3.20;;;13.50;99.90;;;;;;5014525;28;20379;-67
2022/09/17 09:24:40;;;;;;;8.17;3.17;;;13.30;99.90;;;;;;4996567;28;20419;-68
2022/09/17 09:27:18;;;;;;;7.13;3.80;;;13.60;99.90;;;;;;5014552;28;20964;-67
2022/09/17 09:30:09;;;;;;;7.53;2.80;;;13.70;99.90;;;;;;5033497;28;20434;-67
2022/09/17 09:32:56;;;;;;;7.03;3.17;;;13.70;99.90;;;;;;5034637;28;20386;-68
2022/09/17 09:35:32;;;;;;;10.70;3.60;;;13.70;99.90;;;;;;5033957;28;20427;-68
2022/09/17 09:38:14;;;;;;;9.60;3.30;;;13.60;99.90;;;;;;5033956;28;20448;-69
2022/09/17 09:40:58;;;;;;;4.47;3.07;;;13.70;99.90;;;;;;5018502;28;20431;-69
2022/09/17 09:43:53;;;;;;;8.70;3.30;;;13.40;99.90;;;;;;5013697;28;20439;-69
2022/09/17 09:46:40;;;;;;;4.70;2.20;;;13.40;99.90;;;;;;4993119;28;20420;-68
2022/09/17 09:49:27;;;;;;;7.83;2.93;;;13.60;99.90;;;;;;5014029;28;20439;-67
2022/09/17 09:52:22;;;;;;;4.50;2.50;;;13.60;99.90;;;;;;5028177;28;20433;-67
2022/09/17 09:54:56;;;;;;;7.80;3.00;;;13.50;99.90;;;;;;5032949;28;20506;-67
2022/09/17 09:57:44;;;;;;;5.87;3.17;;;13.70;99.90;;;;;;5031434;28;20538;-67
2022/09/17 10:00:30;;;;;;;5.80;2.90;;;13.70;99.90;;;;;;5033525;28;20432;-67
2022/09/17 10:03:31;;;;;;;7.60;2.80;;;13.40;99.90;;;;;;5033129;28;20963;-67
2022/09/17 10:06:08;;;;;;;7.70;2.60;;;13.30;99.90;;;;;;5026237;28;20418;-67
2022/09/17 10:08:36;;;;;;;6.60;2.90;;;13.50;99.90;;;;;;5032915;28;20436;-68
2022/09/17 10:11:19;;;;;;;9.43;3.50;;;13.60;99.90;;;;;;5033246;28;20495;-67
2022/09/17 10:13:45;;;;;;;7.67;3.30;;;13.80;99.90;;;;;;5033501;28;20424;-67
2022/09/17 10:16:16;;;;;;;7.20;3.37;;;14.00;99.90;;;;;;5033233;28;20450;-67
2022/09/17 10:18:42;;;;;;;6.37;3.07;;;14.10;99.90;;;;;;5033492;28;20202;-67
2022/09/17 10:21:21;;;;;;;6.10;2.97;;;14.60;99.90;;;;;;5032690;28;20549;-67
2022/09/17 10:23:47;;;;;;;6.23;2.70;;;14.70;99.90;;;;;;5033543;28;20157;-67
2022/09/17 10:26:39;;;;;;;5.40;2.57;;;14.70;99.90;;;;;;5032137;28;20429;-67
2022/09/17 10:29:12;;;;;;;5.10;2.50;;;14.60;99.90;;;;;;5030564;28;20531;-68
2022/09/17 10:31:58;;;;;;;3.77;2.20;;;14.40;99.90;;;;;;5030880;28;20469;-67
2022/09/17 10:34:27;;;;;;;5.93;2.00;;;14.40;99.90;;;;;;5032166;28;20432;-67
2022/09/17 10:36:57;;;;;;;5.57;2.60;;;14.40;99.90;;;;;;5033378;28;20530;-67
2022/09/17 10:39:37;;;;;;;3.10;2.20;;;14.70;99.90;;;;;;5033033;28;20424;-68
2022/09/17 10:42:14;;;;;;;6.00;2.60;;;15.10;99.90;;;;;;5033856;28;20972;-67
2022/09/17 10:44:54;;;;;;;7.03;2.00;;;15.70;99.90;;;;;;5033200;28;20404;-68
2022/09/17 10:47:34;;;;;;;3.87;2.00;;;15.40;99.90;;;;;;5033183;28;20496;-67
2022/09/17 10:50:06;;;;;;;4.33;2.27;;;15.70;99.90;;;;;;5032581;28;20449;-67
2022/09/17 10:52:36;;;;;;;5.60;1.97;;;16.20;99.90;;;;;;5033323;28;20420;-68
2022/09/17 10:55:13;;;;;;;4.03;2.17;;;16.40;99.90;;;;;;5033066;28;20436;-67
2022/09/17 10:58:08;;;;;;;2.83;2.10;;;16.10;99.90;;;;;;5032954;28;20453;-67
2022/09/17 11:00:40;;;;;;;4.30;2.43;;;15.50;99.90;;;;;;5032669;28;20433;-67
2022/09/17 11:03:24;;;;;;;4.30;2.47;;;15.70;99.90;;;;;;5032573;28;20473;-67
2022/09/17 11:06:17;;;;;;;4.93;1.90;;;17.00;99.90;;;;;;5033208;28;20474;-67
2022/09/17 11:08:54;;;;;;;2.97;1.90;;;17.10;99.90;;;;;;5031854;28;20911;-67
2022/09/17 11:11:45;;;;;;;4.37;1.93;;;17.30;99.90;;;;;;5032278;28;20863;-68
2022/09/17 11:14:32;;;;;;;4.53;1.50;;;18.20;99.90;;;;;;5032905;28;20817;-67
2022/09/17 11:17:22;;;;;;;2.60;1.63;;;19.20;98.60;;;;;;5032706;28;21026;-67
2022/09/17 11:20:03;;;;;;;4.37;1.83;;;19.50;97.60;;;;;;5031876;28;20438;-67
2022/09/17 11:22:37;;;;;;;3.57;1.80;;;19.90;97.60;;;;;;5032939;28;20386;-67
2022/09/17 11:25:41;;;;;;;5.27;1.60;;;20.00;97.30;;;;;;5032462;28;20837;-68
2022/09/17 11:28:35;;;;;;;4.57;2.10;;;19.00;97.50;;;;;;5032689;28;20438;-67
2022/09/17 11:31:34;;;;;;;5.20;1.40;;;17.60;98.60;;;;;;5016567;28;20418;-67
2022/09/17 11:34:26;;;;;;;3.03;1.60;;;17.10;99.00;;;;;;5027081;28;20409;-67
2022/09/17 11:37:05;;;;;;;2.80;1.33;;;17.40;99.20;;;;;;5032644;28;20883;-67
2022/09/17 11:39:37;;;;;;;4.27;1.40;;;17.40;98.60;;;;;;5031541;28;20429;-68
2022/09/17 11:42:12;;;;;;;4.70;2.00;;;17.70;98.50;;;;;;5033006;28;20836;-67
2022/09/17 11:44:46;;;;;;;3.70;1.60;;;17.90;98.30;;;;;;5032594;28;20987;-67
2022/09/17 11:47:27;;;;;;;3.50;1.60;;;18.10;97.50;;;;;;5032783;28;20386;-67
2022/09/17 11:50:24;;;;;;;3.17;1.30;;;18.10;97.30;;;;;;5031972;28;20487;-67
2022/09/17 11:53:24;;;;;;;2.07;1.40;;;18.00;98.00;;;;;;5032917;28;20498;-67
2022/09/17 11:55:52;;;;;;;4.60;1.60;;;18.20;97.40;;;;;;5031959;28;20437;-67
2022/09/17 11:58:35;;;;;;;4.50;1.53;;;18.60;96.80;;;;;;5036178;28;20877;-67
2022/09/17 12:01:05;;;;;;;4.90;1.60;;;18.10;96.60;;;;;;5017494;28;20885;-67
2022/09/17 12:03:58;;;;;;;2.33;1.20;;;17.70;97.20;;;;;;5016929;28;20445;-67
2022/09/17 12:06:43;;;;;;;3.00;1.90;;;17.30;98.00;;;;;;5016824;28;20391;-67
2022/09/17 12:09:18;;;;;;;5.30;2.03;;;17.10;98.20;;;;;;5019221;28;20513;-66
2022/09/17 12:12:02;;;;;;;4.90;1.70;;;17.20;99.00;;;;;;5035987;28;20390;-66
2022/09/17 12:14:45;;;;;;;3.33;1.40;;;17.00;98.10;;;;;;5035375;28;20405;-67
2022/09/17 12:17:19;;;;;;;3.73;1.63;;;16.70;99.30;;;;;;5035621;28;20441;-67
2022/09/17 12:19:56;;;;;;;3.03;1.93;;;16.40;99.90;;;;;;5035379;28;20443;-67
2022/09/17 12:22:36;;;;;;;5.10;1.90;;;16.10;99.90;;;;;;5036434;28;20395;-67
2022/09/17 12:25:02;;;;;;;3.00;1.70;;;15.70;99.90;;;;;;5036012;28;20389;-67
2022/09/17 12:27:49;;;;;;;5.53;2.20;;;15.60;99.90;;;;;;5035784;28;20421;-67
2022/09/17 12:30:25;;;;;;;3.20;1.80;;;15.30;99.90;;;;;;5033625;28;20212;-66
2022/09/17 12:33:18;;;;;;;2.97;1.50;;;15.40;99.90;;;;;;5035761;28;20394;-67
2022/09/17 12:36:06;;;;;;;4.20;1.50;;;15.10;99.90;;;;;;5035027;28;20425;-67
2022/09/17 12:38:52;;;;;;;3.50;1.83;;;15.20;99.90;;;;;;5034412;28;20429;-66
2022/09/17 12:41:46;;;;;;;4.30;1.40;;;15.40;99.90;;;;;;5015254;28;20400;-67
2022/09/17 12:44:36;;;;;;;6.13;2.03;;;16.50;99.90;;;;;;5031589;28;20448;-67
2022/09/17 12:47:16;;;;;;;3.77;1.80;;;16.70;99.90;;;;;;5035874;28;20400;-67
2022/09/17 12:50:17;;;;;;;2.67;1.60;;;16.60;99.90;;;;;;5035453;28;20440;-67
2022/09/17 12:52:58;;;;;;;2.93;1.57;;;15.50;99.90;;;;;;5033374;28;20416;-67
2022/09/17 12:55:26;;;;;;;2.20;1.33;;;14.60;99.90;;;;;;5026183;28;20404;-67
2022/09/17 12:58:18;;;;;;;2.40;1.23;;;14.20;99.90;;;;;;5035536;28;20935;-67
2022/09/17 13:00:51;;;;;;;1.57;1.40;;;14.40;99.90;;;;;;5035147;28;20454;-66
2022/09/17 13:03:16;;;;;;;6.27;1.60;;;14.40;99.90;;;;;;5035616;28;20417;-66
2022/09/17 13:05:42;;;;;;;2.50;1.40;;;14.20;99.90;;;;;;5035285;28;20842;-66
2022/09/17 13:08:38;;;;;;;2.00;1.43;;;14.20;99.90;;;;;;5034163;28;20183;-66
2022/09/17 13:11:22;;;;;;;2.87;1.73;;;13.90;99.90;;;;;;5015936;28;20207;-66
2022/09/17 13:14:01;;;;;;;4.23;1.50;;;13.70;99.90;;;;;;5031437;28;20435;-67
2022/09/17 13:16:48;;;;;;;1.70;1.30;;;13.40;99.90;;;;;;5034394;28;20417;-66